sensor_id;sensor_type;location;lat;lon;timestamp;temperature;humidity
69206;SHT30;56319;48.920;2.332;2023-07-28T00:02:08;24.37;58.27
69206;SHT30;56319;48.920;2.332;2023-07-28T00:04:35;24.40;58.29
69206;SHT30;56319;48.920;2.332;2023-07-28T00:07:01;24.38;58.28
69206;SHT30;56319;48.920;2.332;2023-07-28T00:09:27;24.37;58.34
69206;SHT30;56319;48.920;2.332;2023-07-28T00:11:52;24.37;58.29
69206;SHT30;56319;48.920;2.332;2023-07-28T00:14:18;24.38;58.29
69206;SHT30;56319;48.920;2.332;2023-07-28T00:16:43;24.38;58.32
69206;SHT30;56319;48.920;2.332;2023-07-28T00:19:09;24.38;58.31
69206;SHT30;56319;48.920;2.332;2023-07-28T00:21:34;24.37;58.33
69206;SHT30;56319;48.920;2.332;2023-07-28T00:24:00;24.37;58.30
69206;SHT30;56319;48.920;2.332;2023-07-28T00:26:25;24.35;58.36
69206;SHT30;56319;48.920;2.332;2023-07-28T00:28:51;24.37;58.37
69206;SHT30;56319;48.920;2.332;2023-07-28T00:31:16;24.37;58.30
69206;SHT30;56319;48.920;2.332;2023-07-28T00:33:41;24.37;58.32
69206;SHT30;56319;48.920;2.332;2023-07-28T00:36:07;24.35;58.31
69206;SHT30;56319;48.920;2.332;2023-07-28T00:38:33;24.37;58.39
69206;SHT30;56319;48.920;2.332;2023-07-28T00:40:58;24.35;58.38
69206;SHT30;56319;48.920;2.332;2023-07-28T00:43:24;24.35;58.41
69206;SHT30;56319;48.920;2.332;2023-07-28T00:45:49;24.32;58.34
69206;SHT30;56319;48.920;2.332;2023-07-28T00:48:17;24.35;58.33
69206;SHT30;56319;48.920;2.332;2023-07-28T00:50:45;24.32;58.35
69206;SHT30;56319;48.920;2.332;2023-07-28T00:53:10;24.34;58.35
69206;SHT30;56319;48.920;2.332;2023-07-28T00:55:37;24.38;58.40
69206;SHT30;56319;48.920;2.332;2023-07-28T00:58:03;24.32;58.30
69206;SHT30;56319;48.920;2.332;2023-07-28T01:00:28;24.35;58.39
69206;SHT30;56319;48.920;2.332;2023-07-28T01:02:54;24.35;58.40
69206;SHT30;56319;48.920;2.332;2023-07-28T01:05:28;24.32;58.41
69206;SHT30;56319;48.920;2.332;2023-07-28T01:08:03;24.32;58.42
69206;SHT30;56319;48.920;2.332;2023-07-28T01:10:32;24.35;58.41
69206;SHT30;56319;48.920;2.332;2023-07-28T01:12:58;24.32;58.38
69206;SHT30;56319;48.920;2.332;2023-07-28T01:15:24;24.31;58.39
69206;SHT30;56319;48.920;2.332;2023-07-28T01:17:50;24.34;58.46
69206;SHT30;56319;48.920;2.332;2023-07-28T01:20:16;24.34;58.50
69206;SHT30;56319;48.920;2.332;2023-07-28T01:25:55;24.32;58.50
69206;SHT30;56319;48.920;2.332;2023-07-28T01:28:24;24.32;58.50
69206;SHT30;56319;48.920;2.332;2023-07-28T01:30:50;24.34;58.50
69206;SHT30;56319;48.920;2.332;2023-07-28T01:33:15;24.30;58.56
69206;SHT30;56319;48.920;2.332;2023-07-28T01:35:41;24.30;58.57
69206;SHT30;56319;48.920;2.332;2023-07-28T01:38:06;24.30;58.56
69206;SHT30;56319;48.920;2.332;2023-07-28T01:40:32;24.32;58.56
69206;SHT30;56319;48.920;2.332;2023-07-28T01:42:57;24.30;58.59
69206;SHT30;56319;48.920;2.332;2023-07-28T01:45:23;24.30;58.56
69206;SHT30;56319;48.920;2.332;2023-07-28T01:47:48;24.30;58.59
69206;SHT30;56319;48.920;2.332;2023-07-28T01:50:14;24.30;58.52
69206;SHT30;56319;48.920;2.332;2023-07-28T01:52:39;24.31;58.57
69206;SHT30;56319;48.920;2.332;2023-07-28T01:55:05;24.31;58.65
69206;SHT30;56319;48.920;2.332;2023-07-28T01:57:33;24.31;58.61
69206;SHT30;56319;48.920;2.332;2023-07-28T01:59:59;24.31;58.63
69206;SHT30;56319;48.920;2.332;2023-07-28T02:02:24;24.32;58.63
69206;SHT30;56319;48.920;2.332;2023-07-28T02:04:50;24.31;58.63
69206;SHT30;56319;48.920;2.332;2023-07-28T02:07:15;24.30;58.66
69206;SHT30;56319;48.920;2.332;2023-07-28T02:09:41;24.30;58.71
69206;SHT30;56319;48.920;2.332;2023-07-28T02:12:06;24.30;58.71
69206;SHT30;56319;48.920;2.332;2023-07-28T02:14:32;24.27;58.68
69206;SHT30;56319;48.920;2.332;2023-07-28T02:16:57;24.30;58.72
69206;SHT30;56319;48.920;2.332;2023-07-28T02:19:24;24.30;58.70
69206;SHT30;56319;48.920;2.332;2023-07-28T02:21:50;24.30;58.68
69206;SHT30;56319;48.920;2.332;2023-07-28T02:24:15;24.30;58.73
69206;SHT30;56319;48.920;2.332;2023-07-28T02:26:41;24.27;58.78
69206;SHT30;56319;48.920;2.332;2023-07-28T02:29:06;24.28;58.74
69206;SHT30;56319;48.920;2.332;2023-07-28T02:31:32;24.28;58.71
69206;SHT30;56319;48.920;2.332;2023-07-28T02:33:57;24.28;58.72
69206;SHT30;56319;48.920;2.332;2023-07-28T02:36:23;24.27;58.77
69206;SHT30;56319;48.920;2.332;2023-07-28T02:38:48;24.28;58.81
69206;SHT30;56319;48.920;2.332;2023-07-28T02:41:14;24.28;58.80
69206;SHT30;56319;48.920;2.332;2023-07-28T02:43:39;24.27;58.68
69206;SHT30;56319;48.920;2.332;2023-07-28T02:46:05;24.31;58.77
69206;SHT30;56319;48.920;2.332;2023-07-28T02:48:30;24.28;58.77
69206;SHT30;56319;48.920;2.332;2023-07-28T02:50:56;24.28;58.91
69206;SHT30;56319;48.920;2.332;2023-07-28T02:53:21;24.27;58.89
69206;SHT30;56319;48.920;2.332;2023-07-28T02:55:47;24.28;58.91
69206;SHT30;56319;48.920;2.332;2023-07-28T02:58:13;24.27;58.90
69206;SHT30;56319;48.920;2.332;2023-07-28T03:00:40;24.28;58.83
69206;SHT30;56319;48.920;2.332;2023-07-28T03:03:08;24.24;58.85
69206;SHT30;56319;48.920;2.332;2023-07-28T03:05:36;24.25;58.84
69206;SHT30;56319;48.920;2.332;2023-07-28T03:08:01;24.25;58.87
69206;SHT30;56319;48.920;2.332;2023-07-28T03:10:27;24.25;58.92
69206;SHT30;56319;48.920;2.332;2023-07-28T03:12:52;24.27;58.89
69206;SHT30;56319;48.920;2.332;2023-07-28T03:15:18;24.25;58.89
69206;SHT30;56319;48.920;2.332;2023-07-28T03:17:43;24.27;58.95
69206;SHT30;56319;48.920;2.332;2023-07-28T03:20:09;24.25;58.89
69206;SHT30;56319;48.920;2.332;2023-07-28T03:22:35;24.28;58.92
69206;SHT30;56319;48.920;2.332;2023-07-28T03:25:00;24.25;58.99
69206;SHT30;56319;48.920;2.332;2023-07-28T03:27:26;24.24;58.92
69206;SHT30;56319;48.920;2.332;2023-07-28T03:29:51;24.25;58.92
69206;SHT30;56319;48.920;2.332;2023-07-28T03:32:17;24.25;58.94
69206;SHT30;56319;48.920;2.332;2023-07-28T03:34:42;24.24;58.97
69206;SHT30;56319;48.920;2.332;2023-07-28T03:37:08;24.24;58.96
69206;SHT30;56319;48.920;2.332;2023-07-28T03:39:34;24.27;58.96
69206;SHT30;56319;48.920;2.332;2023-07-28T03:42:00;24.25;59.01
69206;SHT30;56319;48.920;2.332;2023-07-28T03:44:25;24.24;58.97
69206;SHT30;56319;48.920;2.332;2023-07-28T03:46:51;24.25;58.97
69206;SHT30;56319;48.920;2.332;2023-07-28T03:49:17;24.27;58.97
69206;SHT30;56319;48.920;2.332;2023-07-28T03:51:43;24.23;58.97
69206;SHT30;56319;48.920;2.332;2023-07-28T03:54:08;24.23;58.93
69206;SHT30;56319;48.920;2.332;2023-07-28T03:56:34;24.24;58.96
69206;SHT30;56319;48.920;2.332;2023-07-28T03:58:59;24.25;58.97
69206;SHT30;56319;48.920;2.332;2023-07-28T04:01:25;24.25;58.97
69206;SHT30;56319;48.920;2.332;2023-07-28T04:03:50;24.24;58.95
69206;SHT30;56319;48.920;2.332;2023-07-28T04:06:16;24.21;58.99
69206;SHT30;56319;48.920;2.332;2023-07-28T04:08:41;24.24;59.01
69206;SHT30;56319;48.920;2.332;2023-07-28T04:11:07;24.24;58.96
69206;SHT30;56319;48.920;2.332;2023-07-28T04:13:34;24.24;58.99
69206;SHT30;56319;48.920;2.332;2023-07-28T04:15:59;24.24;59.01
69206;SHT30;56319;48.920;2.332;2023-07-28T04:18:25;24.23;59.01
69206;SHT30;56319;48.920;2.332;2023-07-28T04:20:51;24.23;59.04
69206;SHT30;56319;48.920;2.332;2023-07-28T04:23:16;24.23;59.06
69206;SHT30;56319;48.920;2.332;2023-07-28T04:25:42;24.20;59.10
69206;SHT30;56319;48.920;2.332;2023-07-28T04:28:07;24.23;59.10
69206;SHT30;56319;48.920;2.332;2023-07-28T04:30:33;24.21;59.12
69206;SHT30;56319;48.920;2.332;2023-07-28T04:32:58;24.23;59.15
69206;SHT30;56319;48.920;2.332;2023-07-28T04:35:24;24.24;59.16
69206;SHT30;56319;48.920;2.332;2023-07-28T04:37:49;24.23;59.16
69206;SHT30;56319;48.920;2.332;2023-07-28T04:40:15;24.24;59.11
69206;SHT30;56319;48.920;2.332;2023-07-28T04:42:40;24.23;59.16
69206;SHT30;56319;48.920;2.332;2023-07-28T04:45:06;24.21;59.21
69206;SHT30;56319;48.920;2.332;2023-07-28T04:47:32;24.21;59.18
69206;SHT30;56319;48.920;2.332;2023-07-28T04:49:57;24.20;59.18
69206;SHT30;56319;48.920;2.332;2023-07-28T04:52:23;24.21;59.23
69206;SHT30;56319;48.920;2.332;2023-07-28T04:54:49;24.21;59.21
69206;SHT30;56319;48.920;2.332;2023-07-28T04:57:14;24.20;59.22
69206;SHT30;56319;48.920;2.332;2023-07-28T04:59:40;24.21;59.22
69206;SHT30;56319;48.920;2.332;2023-07-28T05:02:06;24.20;59.25
69206;SHT30;56319;48.920;2.332;2023-07-28T05:04:31;24.20;59.31
69206;SHT30;56319;48.920;2.332;2023-07-28T05:06:57;24.20;59.32
69206;SHT30;56319;48.920;2.332;2023-07-28T05:09:23;24.21;59.37
69206;SHT30;56319;48.920;2.332;2023-07-28T05:11:48;24.23;59.42
69206;SHT30;56319;48.920;2.332;2023-07-28T05:14:14;24.20;59.41
69206;SHT30;56319;48.920;2.332;2023-07-28T05:16:39;24.20;59.42
69206;SHT30;56319;48.920;2.332;2023-07-28T05:19:06;24.21;59.54
69206;SHT30;56319;48.920;2.332;2023-07-28T05:21:32;24.20;59.50
69206;SHT30;56319;48.920;2.332;2023-07-28T05:23:58;24.23;59.46
69206;SHT30;56319;48.920;2.332;2023-07-28T05:26:24;24.21;59.47
69206;SHT30;56319;48.920;2.332;2023-07-28T05:28:49;24.23;59.51
69206;SHT30;56319;48.920;2.332;2023-07-28T05:31:16;24.20;59.51
69206;SHT30;56319;48.920;2.332;2023-07-28T05:33:41;24.20;59.53
69206;SHT30;56319;48.920;2.332;2023-07-28T05:36:07;24.18;59.52
69206;SHT30;56319;48.920;2.332;2023-07-28T05:38:33;24.20;59.51
69206;SHT30;56319;48.920;2.332;2023-07-28T05:40:59;24.20;59.56
69206;SHT30;56319;48.920;2.332;2023-07-28T05:43:27;24.20;59.59
69206;SHT30;56319;48.920;2.332;2023-07-28T05:45:52;24.20;59.63
69206;SHT30;56319;48.920;2.332;2023-07-28T05:48:18;24.20;59.70
69206;SHT30;56319;48.920;2.332;2023-07-28T05:50:44;24.18;59.67
69206;SHT30;56319;48.920;2.332;2023-07-28T05:53:09;24.17;59.69
69206;SHT30;56319;48.920;2.332;2023-07-28T05:55:35;24.17;59.67
69206;SHT30;56319;48.920;2.332;2023-07-28T05:58:00;24.21;59.70
69206;SHT30;56319;48.920;2.332;2023-07-28T06:00:26;24.20;59.66
69206;SHT30;56319;48.920;2.332;2023-07-28T06:02:53;24.18;59.70
69206;SHT30;56319;48.920;2.332;2023-07-28T06:05:18;24.18;59.72
69206;SHT30;56319;48.920;2.332;2023-07-28T06:07:44;24.18;59.67
69206;SHT30;56319;48.920;2.332;2023-07-28T06:10:09;24.18;59.74
69206;SHT30;56319;48.920;2.332;2023-07-28T06:12:35;24.18;59.76
69206;SHT30;56319;48.920;2.332;2023-07-28T06:15:01;24.18;59.72
69206;SHT30;56319;48.920;2.332;2023-07-28T06:17:28;24.21;59.80
69206;SHT30;56319;48.920;2.332;2023-07-28T06:19:54;24.21;59.82
69206;SHT30;56319;48.920;2.332;2023-07-28T06:22:20;24.20;59.85
69206;SHT30;56319;48.920;2.332;2023-07-28T06:24:45;24.20;59.78
69206;SHT30;56319;48.920;2.332;2023-07-28T06:27:11;24.20;59.81
69206;SHT30;56319;48.920;2.332;2023-07-28T06:29:36;24.18;59.82
69206;SHT30;56319;48.920;2.332;2023-07-28T06:32:02;24.20;59.84
69206;SHT30;56319;48.920;2.332;2023-07-28T06:34:27;24.20;59.87
69206;SHT30;56319;48.920;2.332;2023-07-28T06:36:53;24.21;59.84
69206;SHT30;56319;48.920;2.332;2023-07-28T06:39:19;24.18;59.83
69206;SHT30;56319;48.920;2.332;2023-07-28T06:41:44;24.18;59.79
69206;SHT30;56319;48.920;2.332;2023-07-28T06:44:10;24.23;59.89
69206;SHT30;56319;48.920;2.332;2023-07-28T06:46:35;24.20;59.89
69206;SHT30;56319;48.920;2.332;2023-07-28T06:49:01;24.21;59.83
69206;SHT30;56319;48.920;2.332;2023-07-28T06:51:26;24.18;59.87
69206;SHT30;56319;48.920;2.332;2023-07-28T06:53:51;24.20;59.82
69206;SHT30;56319;48.920;2.332;2023-07-28T06:56:17;24.20;59.87
69206;SHT30;56319;48.920;2.332;2023-07-28T06:58:43;24.21;59.95
69206;SHT30;56319;48.920;2.332;2023-07-28T07:01:08;24.20;59.87
69206;SHT30;56319;48.920;2.332;2023-07-28T07:03:37;24.20;59.90
69206;SHT30;56319;48.920;2.332;2023-07-28T07:06:02;24.21;59.92
69206;SHT30;56319;48.920;2.332;2023-07-28T07:08:28;24.23;59.93
69206;SHT30;56319;48.920;2.332;2023-07-28T07:10:53;24.20;59.96
69206;SHT30;56319;48.920;2.332;2023-07-28T07:13:19;24.20;59.90
69206;SHT30;56319;48.920;2.332;2023-07-28T07:15:45;24.21;60.01
69206;SHT30;56319;48.920;2.332;2023-07-28T07:18:11;24.21;59.98
69206;SHT30;56319;48.920;2.332;2023-07-28T07:20:37;24.20;60.02
69206;SHT30;56319;48.920;2.332;2023-07-28T07:23:05;24.20;60.02
69206;SHT30;56319;48.920;2.332;2023-07-28T07:25:30;24.21;60.01
69206;SHT30;56319;48.920;2.332;2023-07-28T07:27:56;24.21;59.98
69206;SHT30;56319;48.920;2.332;2023-07-28T07:30:22;24.18;60.02
69206;SHT30;56319;48.920;2.332;2023-07-28T07:32:47;24.17;60.07
69206;SHT30;56319;48.920;2.332;2023-07-28T07:35:13;24.21;60.04
69206;SHT30;56319;48.920;2.332;2023-07-28T07:37:39;24.21;60.08
69206;SHT30;56319;48.920;2.332;2023-07-28T07:40:06;24.21;60.11
69206;SHT30;56319;48.920;2.332;2023-07-28T07:42:52;24.21;60.24
69206;SHT30;56319;48.920;2.332;2023-07-28T07:45:18;24.20;60.21
69206;SHT30;56319;48.920;2.332;2023-07-28T07:47:43;24.18;60.28
69206;SHT30;56319;48.920;2.332;2023-07-28T07:50:10;24.20;60.35
69206;SHT30;56319;48.920;2.332;2023-07-28T07:52:36;24.18;60.36
69206;SHT30;56319;48.920;2.332;2023-07-28T07:55:04;24.18;60.29
69206;SHT30;56319;48.920;2.332;2023-07-28T07:57:30;24.21;60.34
69206;SHT30;56319;48.920;2.332;2023-07-28T07:59:57;24.20;60.33
69206;SHT30;56319;48.920;2.332;2023-07-28T08:02:23;24.20;60.43
69206;SHT30;56319;48.920;2.332;2023-07-28T08:04:49;24.21;60.37
69206;SHT30;56319;48.920;2.332;2023-07-28T08:07:15;24.18;60.41
69206;SHT30;56319;48.920;2.332;2023-07-28T08:09:41;24.20;60.41
69206;SHT30;56319;48.920;2.332;2023-07-28T08:12:08;24.21;60.46
69206;SHT30;56319;48.920;2.332;2023-07-28T08:14:33;24.24;60.41
69206;SHT30;56319;48.920;2.332;2023-07-28T08:16:59;24.23;60.42
69206;SHT30;56319;48.920;2.332;2023-07-28T08:19:25;24.23;60.47
69206;SHT30;56319;48.920;2.332;2023-07-28T08:21:51;24.21;60.44
69206;SHT30;56319;48.920;2.332;2023-07-28T08:24:16;24.21;60.45
69206;SHT30;56319;48.920;2.332;2023-07-28T08:26:42;24.23;60.56
69206;SHT30;56319;48.920;2.332;2023-07-28T08:29:07;24.25;60.49
69206;SHT30;56319;48.920;2.332;2023-07-28T08:31:33;24.24;60.51
69206;SHT30;56319;48.920;2.332;2023-07-28T08:33:59;24.23;60.60
69206;SHT30;56319;48.920;2.332;2023-07-28T08:36:24;24.25;60.58
69206;SHT30;56319;48.920;2.332;2023-07-28T08:38:49;24.24;60.56
69206;SHT30;56319;48.920;2.332;2023-07-28T08:41:15;24.24;60.61
69206;SHT30;56319;48.920;2.332;2023-07-28T08:43:41;24.24;60.56
69206;SHT30;56319;48.920;2.332;2023-07-28T08:46:07;24.23;60.61
69206;SHT30;56319;48.920;2.332;2023-07-28T08:48:33;24.24;60.74
69206;SHT30;56319;48.920;2.332;2023-07-28T08:50:58;24.25;60.56
69206;SHT30;56319;48.920;2.332;2023-07-28T08:53:24;24.28;60.72
69206;SHT30;56319;48.920;2.332;2023-07-28T08:55:51;24.27;60.68
69206;SHT30;56319;48.920;2.332;2023-07-28T08:58:19;24.27;60.71
69206;SHT30;56319;48.920;2.332;2023-07-28T09:00:47;24.27;60.64
69206;SHT30;56319;48.920;2.332;2023-07-28T09:03:15;24.25;60.70
69206;SHT30;56319;48.920;2.332;2023-07-28T09:05:42;24.27;60.74
69206;SHT30;56319;48.920;2.332;2023-07-28T09:08:08;24.31;60.71
69206;SHT30;56319;48.920;2.332;2023-07-28T09:10:54;24.30;60.74
69206;SHT30;56319;48.920;2.332;2023-07-28T09:13:20;24.30;60.72
69206;SHT30;56319;48.920;2.332;2023-07-28T09:15:46;24.30;60.82
69206;SHT30;56319;48.920;2.332;2023-07-28T09:18:15;24.34;60.81
69206;SHT30;56319;48.920;2.332;2023-07-28T09:20:42;24.31;60.75
69206;SHT30;56319;48.920;2.332;2023-07-28T09:23:09;24.31;60.81
69206;SHT30;56319;48.920;2.332;2023-07-28T09:25:36;24.30;60.84
69206;SHT30;56319;48.920;2.332;2023-07-28T09:28:03;24.32;60.90
69206;SHT30;56319;48.920;2.332;2023-07-28T09:30:45;24.31;60.89
69206;SHT30;56319;48.920;2.332;2023-07-28T09:33:11;24.31;60.92
69206;SHT30;56319;48.920;2.332;2023-07-28T09:35:47;24.31;60.99
69206;SHT30;56319;48.920;2.332;2023-07-28T09:38:14;24.31;60.91
69206;SHT30;56319;48.920;2.332;2023-07-28T09:40:40;24.34;60.92
69206;SHT30;56319;48.920;2.332;2023-07-28T09:43:10;24.32;60.89
69206;SHT30;56319;48.920;2.332;2023-07-28T09:45:37;24.31;60.81
69206;SHT30;56319;48.920;2.332;2023-07-28T09:48:05;24.32;61.11
69206;SHT30;56319;48.920;2.332;2023-07-28T09:50:36;24.34;60.92
69206;SHT30;56319;48.920;2.332;2023-07-28T09:53:03;24.32;60.90
69206;SHT30;56319;48.920;2.332;2023-07-28T09:55:29;24.34;60.98
69206;SHT30;56319;48.920;2.332;2023-07-28T09:57:57;24.37;60.96
69206;SHT30;56319;48.920;2.332;2023-07-28T10:00:25;24.35;61.01
69206;SHT30;56319;48.920;2.332;2023-07-28T10:02:52;24.38;60.95
69206;SHT30;56319;48.920;2.332;2023-07-28T10:05:18;24.40;61.03
69206;SHT30;56319;48.920;2.332;2023-07-28T10:07:45;24.38;60.94
69206;SHT30;56319;48.920;2.332;2023-07-28T10:10:12;24.38;60.99
69206;SHT30;56319;48.920;2.332;2023-07-28T10:12:41;24.40;61.04
69206;SHT30;56319;48.920;2.332;2023-07-28T10:15:09;24.38;61.12
69206;SHT30;56319;48.920;2.332;2023-07-28T10:17:36;24.41;61.12
69206;SHT30;56319;48.920;2.332;2023-07-28T10:20:03;24.40;61.02
69206;SHT30;56319;48.920;2.332;2023-07-28T10:22:44;24.40;61.02
69206;SHT30;56319;48.920;2.332;2023-07-28T10:25:10;24.44;61.16
69206;SHT30;56319;48.920;2.332;2023-07-28T10:27:38;24.44;60.90
69206;SHT30;56319;48.920;2.332;2023-07-28T10:30:09;24.45;60.93
69206;SHT30;56319;48.920;2.332;2023-07-28T10:32:38;24.47;60.75
69206;SHT30;56319;48.920;2.332;2023-07-28T10:35:08;24.51;60.89
69206;SHT30;56319;48.920;2.332;2023-07-28T10:37:36;24.48;60.72
69206;SHT30;56319;48.920;2.332;2023-07-28T10:43:07;24.52;60.68
69206;SHT30;56319;48.920;2.332;2023-07-28T10:45:33;24.55;60.72
69206;SHT30;56319;48.920;2.332;2023-07-28T10:47:59;24.54;60.60
69206;SHT30;56319;48.920;2.332;2023-07-28T10:50:28;24.55;60.62
69206;SHT30;56319;48.920;2.332;2023-07-28T10:52:54;24.59;60.66
69206;SHT30;56319;48.920;2.332;2023-07-28T10:55:22;24.61;60.68
69206;SHT30;56319;48.920;2.332;2023-07-28T10:57:49;24.61;60.78
69206;SHT30;56319;48.920;2.332;2023-07-28T11:00:17;24.61;60.75
69206;SHT30;56319;48.920;2.332;2023-07-28T11:02:45;24.65;60.74
69206;SHT30;56319;48.920;2.332;2023-07-28T11:05:14;24.62;60.72
69206;SHT30;56319;48.920;2.332;2023-07-28T11:07:42;24.65;60.83
69206;SHT30;56319;48.920;2.332;2023-07-28T11:10:10;24.65;60.53
69206;SHT30;56319;48.920;2.332;2023-07-28T11:12:40;24.64;60.64
69206;SHT30;56319;48.920;2.332;2023-07-28T11:15:08;24.66;60.61
69206;SHT30;56319;48.920;2.332;2023-07-28T11:17:38;24.68;60.50
69206;SHT30;56319;48.920;2.332;2023-07-28T11:20:14;24.65;60.51
69206;SHT30;56319;48.920;2.332;2023-07-28T11:22:41;24.68;60.88
69206;SHT30;56319;48.920;2.332;2023-07-28T11:25:06;24.69;60.82
69206;SHT30;56319;48.920;2.332;2023-07-28T11:27:36;24.71;60.84
69206;SHT30;56319;48.920;2.332;2023-07-28T11:30:02;24.69;60.89
69206;SHT30;56319;48.920;2.332;2023-07-28T11:32:31;24.69;60.84
69206;SHT30;56319;48.920;2.332;2023-07-28T11:35:17;24.71;60.80
69206;SHT30;56319;48.920;2.332;2023-07-28T11:37:46;24.69;60.81
69206;SHT30;56319;48.920;2.332;2023-07-28T11:40:17;24.69;60.85
69206;SHT30;56319;48.920;2.332;2023-07-28T11:42:45;24.73;60.89
69206;SHT30;56319;48.920;2.332;2023-07-28T11:45:13;24.76;60.97
69206;SHT30;56319;48.920;2.332;2023-07-28T11:47:39;24.77;61.07
69206;SHT30;56319;48.920;2.332;2023-07-28T11:50:05;24.80;61.02
69206;SHT30;56319;48.920;2.332;2023-07-28T11:52:32;24.80;61.01
69206;SHT30;56319;48.920;2.332;2023-07-28T11:54:59;24.83;60.98
69206;SHT30;56319;48.920;2.332;2023-07-28T11:57:27;24.87;60.94
69206;SHT30;56319;48.920;2.332;2023-07-28T11:59:53;24.90;60.87
69206;SHT30;56319;48.920;2.332;2023-07-28T12:02:39;24.90;60.84
69206;SHT30;56319;48.920;2.332;2023-07-28T12:05:12;24.90;60.77
69206;SHT30;56319;48.920;2.332;2023-07-28T12:07:38;24.90;60.74
69206;SHT30;56319;48.920;2.332;2023-07-28T12:10:04;24.92;60.72
69206;SHT30;56319;48.920;2.332;2023-07-28T12:12:44;24.89;60.76
69206;SHT30;56319;48.920;2.332;2023-07-28T12:15:30;24.92;60.70
69206;SHT30;56319;48.920;2.332;2023-07-28T12:18:16;24.92;60.68
69206;SHT30;56319;48.920;2.332;2023-07-28T12:20:45;24.93;60.65
69206;SHT30;56319;48.920;2.332;2023-07-28T12:23:14;24.90;60.64
69206;SHT30;56319;48.920;2.332;2023-07-28T12:25:41;24.90;60.66
69206;SHT30;56319;48.920;2.332;2023-07-28T12:28:07;24.92;60.64
69206;SHT30;56319;48.920;2.332;2023-07-28T12:30:34;24.93;60.61
69206;SHT30;56319;48.920;2.332;2023-07-28T12:32:59;24.94;60.62
69206;SHT30;56319;48.920;2.332;2023-07-28T12:35:26;24.99;60.56
69206;SHT30;56319;48.920;2.332;2023-07-28T12:37:56;25.03;60.54
69206;SHT30;56319;48.920;2.332;2023-07-28T12:40:22;25.04;60.50
69206;SHT30;56319;48.920;2.332;2023-07-28T12:42:48;25.06;60.45
69206;SHT30;56319;48.920;2.332;2023-07-28T12:45:14;25.06;60.43
69206;SHT30;56319;48.920;2.332;2023-07-28T12:47:42;25.07;60.44
69206;SHT30;56319;48.920;2.332;2023-07-28T12:50:08;25.04;60.44
69206;SHT30;56319;48.920;2.332;2023-07-28T12:52:33;25.06;60.46
69206;SHT30;56319;48.920;2.332;2023-07-28T12:54:59;25.04;60.48
69206;SHT30;56319;48.920;2.332;2023-07-28T12:57:24;25.07;60.44
69206;SHT30;56319;48.920;2.332;2023-07-28T12:59:50;25.07;60.47
69206;SHT30;56319;48.920;2.332;2023-07-28T13:02:17;25.07;60.47
69206;SHT30;56319;48.920;2.332;2023-07-28T13:04:43;25.09;60.43
69206;SHT30;56319;48.920;2.332;2023-07-28T13:07:08;25.13;60.38
69206;SHT30;56319;48.920;2.332;2023-07-28T13:09:34;25.14;60.35
69206;SHT30;56319;48.920;2.332;2023-07-28T13:11:59;25.20;60.26
69206;SHT30;56319;48.920;2.332;2023-07-28T13:14:25;25.21;60.20
69206;SHT30;56319;48.920;2.332;2023-07-28T13:16:50;25.27;60.18
69206;SHT30;56319;48.920;2.332;2023-07-28T13:19:16;25.30;60.13
69206;SHT30;56319;48.920;2.332;2023-07-28T13:21:42;25.33;60.05
69206;SHT30;56319;48.920;2.332;2023-07-28T13:24:07;25.39;60.04
69206;SHT30;56319;48.920;2.332;2023-07-28T13:26:33;25.42;59.95
69206;SHT30;56319;48.920;2.332;2023-07-28T13:28:58;25.48;59.88
69206;SHT30;56319;48.920;2.332;2023-07-28T13:31:27;25.54;59.85
69206;SHT30;56319;48.920;2.332;2023-07-28T13:33:53;25.61;59.77
69206;SHT30;56319;48.920;2.332;2023-07-28T13:36:18;25.65;59.70
69206;SHT30;56319;48.920;2.332;2023-07-28T13:38:44;25.63;59.68
69206;SHT30;56319;48.920;2.332;2023-07-28T13:41:10;25.68;59.66
69206;SHT30;56319;48.920;2.332;2023-07-28T13:43:35;25.65;59.69
69206;SHT30;56319;48.920;2.332;2023-07-28T13:46:03;25.65;59.67
69206;SHT30;56319;48.920;2.332;2023-07-28T13:48:30;25.68;59.68
69206;SHT30;56319;48.920;2.332;2023-07-28T13:50:56;25.68;59.71
69206;SHT30;56319;48.920;2.332;2023-07-28T13:53:23;25.65;59.74
69206;SHT30;56319;48.920;2.332;2023-07-28T13:55:48;25.62;59.73
69206;SHT30;56319;48.920;2.332;2023-07-28T13:58:14;25.59;59.76
69206;SHT30;56319;48.920;2.332;2023-07-28T14:00:40;25.62;59.75
69206;SHT30;56319;48.920;2.332;2023-07-28T14:03:05;25.59;59.80
69206;SHT30;56319;48.920;2.332;2023-07-28T14:05:31;25.58;59.88
69206;SHT30;56319;48.920;2.332;2023-07-28T14:07:56;25.57;59.85
69206;SHT30;56319;48.920;2.332;2023-07-28T14:10:22;25.58;59.91
69206;SHT30;56319;48.920;2.332;2023-07-28T14:12:49;25.55;59.91
69206;SHT30;56319;48.920;2.332;2023-07-28T14:15:15;25.51;59.95
69206;SHT30;56319;48.920;2.332;2023-07-28T14:17:40;25.51;59.99
69206;SHT30;56319;48.920;2.332;2023-07-28T14:20:06;25.48;60.04
69206;SHT30;56319;48.920;2.332;2023-07-28T14:22:33;25.47;60.02
69206;SHT30;56319;48.920;2.332;2023-07-28T14:24:59;25.44;60.09
69206;SHT30;56319;48.920;2.332;2023-07-28T14:27:24;25.42;60.10
69206;SHT30;56319;48.920;2.332;2023-07-28T14:29:50;25.44;60.17
69206;SHT30;56319;48.920;2.332;2023-07-28T14:32:15;25.42;60.20
69206;SHT30;56319;48.920;2.332;2023-07-28T14:34:41;25.48;60.16
69206;SHT30;56319;48.920;2.332;2023-07-28T14:37:06;25.48;60.13
69206;SHT30;56319;48.920;2.332;2023-07-28T14:39:32;25.47;60.15
69206;SHT30;56319;48.920;2.332;2023-07-28T14:41:57;25.48;60.21
69206;SHT30;56319;48.920;2.332;2023-07-28T14:44:23;25.49;60.22
69206;SHT30;56319;48.920;2.332;2023-07-28T14:46:49;25.47;60.32
69206;SHT30;56319;48.920;2.332;2023-07-28T14:49:14;25.48;60.22
69206;SHT30;56319;48.920;2.332;2023-07-28T14:51:40;25.49;60.24
69206;SHT30;56319;48.920;2.332;2023-07-28T14:54:06;25.47;60.26
69206;SHT30;56319;48.920;2.332;2023-07-28T14:56:31;25.42;60.27
69206;SHT30;56319;48.920;2.332;2023-07-28T14:58:58;25.45;60.28
69206;SHT30;56319;48.920;2.332;2023-07-28T15:01:26;25.41;60.33
69206;SHT30;56319;48.920;2.332;2023-07-28T15:03:52;25.42;60.32
69206;SHT30;56319;48.920;2.332;2023-07-28T15:06:17;25.39;60.35
69206;SHT30;56319;48.920;2.332;2023-07-28T15:08:43;25.35;60.44
69206;SHT30;56319;48.920;2.332;2023-07-28T15:11:09;25.37;60.45
69206;SHT30;56319;48.920;2.332;2023-07-28T15:13:34;25.37;60.42
69206;SHT30;56319;48.920;2.332;2023-07-28T15:16:00;25.37;60.50
69206;SHT30;56319;48.920;2.332;2023-07-28T15:18:25;25.35;60.51
69206;SHT30;56319;48.920;2.332;2023-07-28T15:20:51;25.37;60.52
69206;SHT30;56319;48.920;2.332;2023-07-28T15:23:22;25.31;60.55
69206;SHT30;56319;48.920;2.332;2023-07-28T15:25:47;25.31;60.59
69206;SHT30;56319;48.920;2.332;2023-07-28T15:28:14;25.31;60.60
69206;SHT30;56319;48.920;2.332;2023-07-28T15:30:39;25.30;60.65
69206;SHT30;56319;48.920;2.332;2023-07-28T15:33:06;25.30;60.69